^^
Station Historical Data
Daily Summary for January 1, 2018 Units:  Both    English   Metric
« Previous Day
Next Day »
Daily Weekly Monthly Yearly Custom
  High: Low: Average:
Temperature: TemperatureF °F /  -17.8 °C 62.4 °F /  16.9 °C 76.5 °F /  24.7 °C
Dew Point: DewpointF °F /  -17.8 °C 4.6 °F /  -15.2 °C 22.7 °F /  -5.2 °C
Humidity: Humidity% 7% 14%
Wind Speed: WindSpeedMPHmph /  0km/h - 2.5mph /  4km/h
Wind Gust: WindSpeedGustMPHmph /  0km/h - -
Wind- - SSE
Pressure: PressureIn in /  0 hPa 30.03 in /  1016.8 hPa -
Precipitation: 0.00 in /  0 mm    
Historical Graphs
 
 
Tabular Data for January 1, 2018
Time Temperature Dew Point Pressure Wind Wind Speed Wind Gust Humidity Rainfall Rate (Hourly) solar Conditions
TemperatureF °F /  -17.8 °C DewpointF °F /  -17.8 °C PressureInin /  0hPa Calm     Humidity% HourlyPrecipInin /  0mm SolarRadiationWatts/m^2 W/m2 Conditions
00:00 67.5 °F /  19.7 °C 37.4 °F /  3 °C 30.12in /  1019.9hPa WSW 2.0mph /  3.2km/h 2.0mph /  3.2km/h 33% 0.00in /  0mm 0.0 W/m2
00:06 67.3 °F /  19.6 °C 37.2 °F /  2.9 °C 30.12in /  1019.9hPa Calm   4.0mph /  6.4km/h 33% 0.00in /  0mm 0.0 W/m2
00:11 66.9 °F /  19.4 °C 36.9 °F /  2.7 °C 30.12in /  1019.9hPa Calm   3.0mph /  4.8km/h 33% 0.00in /  0mm 0.0 W/m2
00:16 66.9 °F /  19.4 °C 36.9 °F /  2.7 °C 30.12in /  1019.9hPa Calm   3.0mph /  4.8km/h 33% 0.00in /  0mm 0.0 W/m2
00:21 66.7 °F /  19.3 °C 36.7 °F /  2.6 °C 30.12in /  1019.9hPa Calm   1.0mph /  1.6km/h 33% 0.00in /  0mm 0.0 W/m2
00:26 66.6 °F /  19.2 °C 36.5 °F /  2.5 °C 30.11in /  1019.5hPa Calm     33% 0.00in /  0mm 0.0 W/m2
00:31 66.4 °F /  19.1 °C 35.6 °F /  2 °C 30.11in /  1019.5hPa Calm   2.0mph /  3.2km/h 32% 0.00in /  0mm 0.0 W/m2
00:37 66.0 °F /  18.9 °C 33.6 °F /  0.9 °C 30.11in /  1019.5hPa Calm   1.0mph /  1.6km/h 30% 0.00in /  0mm 0.0 W/m2
00:42 66.0 °F /  18.9 °C 33.6 °F /  0.9 °C 30.11in /  1019.5hPa Calm     30% 0.00in /  0mm 0.0 W/m2
00:48 65.8 °F /  18.8 °C 33.6 °F /  0.9 °C 30.11in /  1019.5hPa Calm   1.0mph /  1.6km/h 30% 0.00in /  0mm 0.0 W/m2
00:53 65.7 °F /  18.7 °C 33.4 °F /  0.8 °C 30.10in /  1019.2hPa Calm   1.0mph /  1.6km/h 30% 0.00in /  0mm 0.0 W/m2
00:58 65.5 °F /  18.6 °C 32.4 °F /  0.2 °C 30.10in /  1019.2hPa Calm   1.0mph /  1.6km/h 29% 0.00in /  0mm 0.0 W/m2
01:03 65.1 °F /  18.4 °C 31.3 °F /  -0.4 °C 30.10in /  1019.2hPa Calm   1.0mph /  1.6km/h 28% 0.00in /  0mm 0.0 W/m2
01:08 65.1 °F /  18.4 °C 30.4 °F /  -0.9 °C 30.10in /  1019.2hPa ESE 2.9mph /  4.7km/h 5.0mph /  8km/h 27% 0.00in /  0mm 0.0 W/m2
01:13 65.1 °F /  18.4 °C 29.3 °F /  -1.5 °C 30.10in /  1019.2hPa Calm   1.0mph /  1.6km/h 26% 0.00in /  0mm 0.0 W/m2
01:18 65.3 °F /  18.5 °C 28.6 °F /  -1.9 °C 30.10in /  1019.2hPa Calm     25% 0.00in /  0mm 0.0 W/m2
01:23 65.1 °F /  18.4 °C 27.5 °F /  -2.5 °C 30.10in /  1019.2hPa Calm     24% 0.00in /  0mm 0.0 W/m2
01:28 65.1 °F /  18.4 °C 26.4 °F /  -3.1 °C 30.10in /  1019.2hPa Calm   1.0mph /  1.6km/h 23% 0.00in /  0mm 0.0 W/m2
01:33 65.1 °F /  18.4 °C 26.4 °F /  -3.1 °C 30.10in /  1019.2hPa Calm     23% 0.00in /  0mm 0.0 W/m2
01:39 65.1 °F /  18.4 °C 26.4 °F /  -3.1 °C 30.10in /  1019.2hPa Calm     23% 0.00in /  0mm 0.0 W/m2
01:44 64.9 °F /  18.3 °C 27.3 °F /  -2.6 °C 30.10in /  1019.2hPa Calm     24% 0.00in /  0mm 0.0 W/m2
01:49 64.8 °F /  18.2 °C 27.1 °F /  -2.7 °C 30.10in /  1019.2hPa Calm     24% 0.00in /  0mm 0.0 W/m2
01:54 64.8 °F /  18.2 °C 26.1 °F /  -3.3 °C 30.10in /  1019.2hPa Calm   1.0mph /  1.6km/h 23% 0.00in /  0mm 0.0 W/m2
01:58 64.6 °F /  18.1 °C 22.6 °F /  -5.2 °C 30.10in /  1019.2hPa WSW 0.9mph /  1.4km/h 1.0mph /  1.6km/h 20% 0.00in /  0mm 0.0 W/m2
02:03 64.6 °F /  18.1 °C 22.6 °F /  -5.2 °C 30.10in /  1019.2hPa SW 0.9mph /  1.4km/h 2.0mph /  3.2km/h 20% 0.00in /  0mm 0.0 W/m2
02:08 64.6 °F /  18.1 °C 21.4 °F /  -5.9 °C 30.10in /  1019.2hPa Calm   4.0mph /  6.4km/h 19% 0.00in /  0mm 0.0 W/m2
02:13 64.8 °F /  18.2 °C 21.6 °F /  -5.8 °C 30.10in /  1019.2hPa Calm   1.0mph /  1.6km/h 19% 0.00in /  0mm 0.0 W/m2
02:15 64.8 °F /  18.2 °C 20.3 °F /  -6.5 °C 30.10in /  1019.2hPa SW 2.0mph /  3.2km/h 3.0mph /  4.8km/h 18% 0.00in /  0mm 0.0 W/m2
02:21 64.9 °F /  18.3 °C 20.5 °F /  -6.4 °C 30.10in /  1019.2hPa Calm   3.0mph /  4.8km/h 18% 0.00in /  0mm 0.0 W/m2
02:27 65.1 °F /  18.4 °C 20.5 °F /  -6.4 °C 30.10in /  1019.2hPa Calm   3.0mph /  4.8km/h 18% 0.00in /  0mm 0.0 W/m2
02:32 65.1 °F /  18.4 °C 21.7 °F /  -5.7 °C 30.10in /  1019.2hPa Calm     19% 0.00in /  0mm 0.0 W/m2
02:37 64.9 °F /  18.3 °C 21.7 °F /  -5.7 °C 30.10in /  1019.2hPa Calm   2.0mph /  3.2km/h 19% 0.00in /  0mm 0.0 W/m2
02:42 64.8 °F /  18.2 °C 21.6 °F /  -5.8 °C 30.10in /  1019.2hPa Calm     19% 0.00in /  0mm 0.0 W/m2
02:47 64.6 °F /  18.1 °C 21.4 °F /  -5.9 °C 30.10in /  1019.2hPa Calm     19% 0.00in /  0mm 0.0 W/m2
02:52 64.2 °F /  17.9 °C 22.3 °F /  -5.4 °C 30.10in /  1019.2hPa Calm     20% 0.00in /  0mm 0.0 W/m2
02:57 63.9 °F /  17.7 °C 21.9 °F /  -5.6 °C 30.10in /  1019.2hPa Calm     20% 0.00in /  0mm 0.0 W/m2
03:02 63.7 °F /  17.6 °C 23.0 °F /  -5 °C 30.10in /  1019.2hPa Calm     21% 0.00in /  0mm 0.0 W/m2
03:08 63.3 °F /  17.4 °C 22.6 °F /  -5.2 °C 30.10in /  1019.2hPa Calm     21% 0.00in /  0mm 0.0 W/m2
03:13 63.0 °F /  17.2 °C 24.6 °F /  -4.1 °C 30.10in /  1019.2hPa Calm     23% 0.00in /  0mm 0.0 W/m2
03:18 62.8 °F /  17.1 °C 22.3 °F /  -5.4 °C 30.10in /  1019.2hPa Calm     21% 0.00in /  0mm 0.0 W/m2
03:23 62.4 °F /  16.9 °C 18.3 °F /  -7.6 °C 30.10in /  1019.2hPa Calm   3.0mph /  4.8km/h 18% 0.00in /  0mm 0.0 W/m2
03:28 62.8 °F /  17.1 °C 17.2 °F /  -8.2 °C 30.10in /  1019.2hPa SSW 4.0mph /  6.4km/h 5.0mph /  8km/h 17% 0.00in /  0mm 0.0 W/m2
03:29 63.0 °F /  17.2 °C 17.4 °F /  -8.1 °C 30.10in /  1019.2hPa SSW 2.0mph /  3.2km/h 5.0mph /  8km/h 17% 0.00in /  0mm 0.0 W/m2
03:34 63.3 °F /  17.4 °C 17.8 °F /  -7.9 °C 30.10in /  1019.2hPa Calm   4.0mph /  6.4km/h 17% 0.00in /  0mm 0.0 W/m2
03:39 63.9 °F /  17.7 °C 16.7 °F /  -8.5 °C 30.10in /  1019.2hPa Calm   3.0mph /  4.8km/h 16% 0.00in /  0mm 0.0 W/m2
03:44 64.2 °F /  17.9 °C 17.1 °F /  -8.3 °C 30.10in /  1019.2hPa SSE 0.9mph /  1.4km/h 4.0mph /  6.4km/h 16% 0.00in /  0mm 0.0 W/m2
03:49 64.8 °F /  18.2 °C 17.4 °F /  -8.1 °C 30.10in /  1019.2hPa SSW 2.9mph /  4.7km/h 6.0mph /  9.7km/h 16% 0.00in /  0mm 0.0 W/m2
03:55 65.1 °F /  18.4 °C 16.3 °F /  -8.7 °C 30.10in /  1019.2hPa SW 4.0mph /  6.4km/h 7.0mph /  11.3km/h 15% 0.00in /  0mm 0.0 W/m2
04:00 65.5 °F /  18.6 °C 16.5 °F /  -8.6 °C 30.10in /  1019.2hPa Calm   6.0mph /  9.7km/h 15% 0.00in /  0mm 0.0 W/m2
04:05 65.5 °F /  18.6 °C 16.5 °F /  -8.6 °C 30.10in /  1019.2hPa Calm   4.0mph /  6.4km/h 15% 0.00in /  0mm 0.0 W/m2
04:10 65.3 °F /  18.5 °C 18.0 °F /  -7.8 °C 30.10in /  1019.2hPa Calm   2.0mph /  3.2km/h 16% 0.00in /  0mm 0.0 W/m2
04:15 65.1 °F /  18.4 °C 17.8 °F /  -7.9 °C 30.09in /  1018.8hPa SSW 4.0mph /  6.4km/h 5.0mph /  8km/h 16% 0.00in /  0mm 0.0 W/m2
04:17 65.1 °F /  18.4 °C 17.8 °F /  -7.9 °C 30.09in /  1018.8hPa Calm   3.0mph /  4.8km/h 16% 0.00in /  0mm 0.0 W/m2
04:22 64.8 °F /  18.2 °C 17.4 °F /  -8.1 °C 30.09in /  1018.8hPa Calm   1.0mph /  1.6km/h 16% 0.00in /  0mm 0.0 W/m2
04:27 64.8 °F /  18.2 °C 16.0 °F /  -8.9 °C 30.09in /  1018.8hPa Calm   1.0mph /  1.6km/h 15% 0.00in /  0mm 0.0 W/m2
04:29 64.6 °F /  18.1 °C 17.4 °F /  -8.1 °C 30.09in /  1018.8hPa Calm   1.0mph /  1.6km/h 16% 0.00in /  0mm 0.0 W/m2
04:34 64.6 °F /  18.1 °C 17.4 °F /  -8.1 °C 30.09in /  1018.8hPa SSW 0.9mph /  1.4km/h 2.0mph /  3.2km/h 16% 0.00in /  0mm 0.0 W/m2
04:39 64.4 °F /  18 °C 17.2 °F /  -8.2 °C 30.09in /  1018.8hPa Calm   1.0mph /  1.6km/h 16% 0.00in /  0mm 0.0 W/m2
04:44 64.2 °F /  17.9 °C 17.1 °F /  -8.3 °C 30.09in /  1018.8hPa Calm     16% 0.00in /  0mm 0.0 W/m2
04:49 64.0 °F /  17.8 °C 15.4 °F /  -9.2 °C 30.09in /  1018.8hPa Calm   1.0mph /  1.6km/h 15% 0.00in /  0mm 0.0 W/m2
04:54 63.9 °F /  17.7 °C 15.3 °F /  -9.3 °C 30.09in /  1018.8hPa SSW 0.9mph /  1.4km/h 2.0mph /  3.2km/h 15% 0.00in /  0mm 0.0 W/m2
04:59 63.9 °F /  17.7 °C 15.3 °F /  -9.3 °C 30.09in /  1018.8hPa South 2.0mph /  3.2km/h 5.0mph /  8km/h 15% 0.00in /  0mm 0.0 W/m2
05:04 64.0 °F /  17.8 °C 15.4 °F /  -9.2 °C 30.09in /  1018.8hPa SSW 2.9mph /  4.7km/h 7.0mph /  11.3km/h 15% 0.00in /  0mm 0.0 W/m2
05:09 64.2 °F /  17.9 °C 15.6 °F /  -9.1 °C 30.09in /  1018.8hPa SSW 0.9mph /  1.4km/h 2.0mph /  3.2km/h 15% 0.00in /  0mm 0.0 W/m2
05:15 64.4 °F /  18 °C 14.2 °F /  -9.9 °C 30.09in /  1018.8hPa Calm   4.0mph /  6.4km/h 14% 0.00in /  0mm 0.0 W/m2
05:21 64.2 °F /  17.9 °C 14.0 °F /  -10 °C 30.09in /  1018.8hPa SSW 0.9mph /  1.4km/h 3.0mph /  4.8km/h 14% 0.00in /  0mm 0.0 W/m2
05:26 64.2 °F /  17.9 °C 12.4 °F /  -10.9 °C 30.09in /  1018.8hPa Calm   4.0mph /  6.4km/h 13% 0.00in /  0mm 0.0 W/m2
05:29 64.2 °F /  17.9 °C 12.4 °F /  -10.9 °C 30.09in /  1018.8hPa SE 2.0mph /  3.2km/h 2.0mph /  3.2km/h 13% 0.00in /  0mm 0.0 W/m2
05:34 64.2 °F /  17.9 °C 10.6 °F /  -11.9 °C 30.10in /  1019.2hPa South 0.9mph /  1.4km/h 9.0mph /  14.5km/h 12% 0.00in /  0mm 0.0 W/m2
05:40 64.4 °F /  18 °C 10.6 °F /  -11.9 °C 30.10in /  1019.2hPa SSE 2.0mph /  3.2km/h 6.0mph /  9.7km/h 12% 0.00in /  0mm 0.0 W/m2
05:45 64.6 °F /  18.1 °C 10.8 °F /  -11.8 °C 30.10in /  1019.2hPa SSE 4.0mph /  6.4km/h 8.0mph /  12.9km/h 12% 0.00in /  0mm 0.0 W/m2
05:48 64.6 °F /  18.1 °C 10.8 °F /  -11.8 °C 30.10in /  1019.2hPa Calm   7.0mph /  11.3km/h 12% 0.00in /  0mm 0.0 W/m2
05:53 64.9 °F /  18.3 °C 9.1 °F /  -12.7 °C 30.10in /  1019.2hPa Calm   7.0mph /  11.3km/h 11% 0.00in /  0mm 0.0 W/m2
05:58 65.1 °F /  18.4 °C 9.3 °F /  -12.6 °C 30.10in /  1019.2hPa Calm   6.0mph /  9.7km/h 11% 0.00in /  0mm 0.0 W/m2
06:03 65.1 °F /  18.4 °C 9.3 °F /  -12.6 °C 30.10in /  1019.2hPa SSW 2.0mph /  3.2km/h 4.0mph /  6.4km/h 11% 0.00in /  0mm 0.0 W/m2
06:09 65.1 °F /  18.4 °C 9.3 °F /  -12.6 °C 30.10in /  1019.2hPa SSW 0.9mph /  1.4km/h 6.0mph /  9.7km/h 11% 0.00in /  0mm 0.0 W/m2
06:15 65.1 °F /  18.4 °C 9.3 °F /  -12.6 °C 30.10in /  1019.2hPa SE 0.9mph /  1.4km/h 2.0mph /  3.2km/h 11% 0.00in /  0mm 5.0 W/m2
06:20 64.9 °F /  18.3 °C 9.1 °F /  -12.7 °C 30.11in /  1019.5hPa South 4.0mph /  6.4km/h 4.0mph /  6.4km/h 11% 0.00in /  0mm 7.0 W/m2
06:25 64.9 °F /  18.3 °C 4.6 °F /  -15.2 °C 30.11in /  1019.5hPa Calm   7.0mph /  11.3km/h 9% 0.00in /  0mm 7.0 W/m2
06:30 64.9 °F /  18.3 °C 4.6 °F /  -15.2 °C 30.12in /  1019.9hPa WSW 2.0mph /  3.2km/h 7.0mph /  11.3km/h 9% 0.00in /  0mm 9.0 W/m2
06:35 65.1 °F /  18.4 °C 4.8 °F /  -15.1 °C 30.12in /  1019.9hPa South 2.9mph /  4.7km/h 5.0mph /  8km/h 9% 0.00in /  0mm 11.0 W/m2
06:40 65.1 °F /  18.4 °C 7.2 °F /  -13.8 °C 30.12in /  1019.9hPa SSW 2.0mph /  3.2km/h 4.0mph /  6.4km/h 10% 0.00in /  0mm 12.0 W/m2
06:46 65.1 °F /  18.4 °C 9.3 °F /  -12.6 °C 30.12in /  1019.9hPa SW 4.0mph /  6.4km/h 7.0mph /  11.3km/h 11% 0.00in /  0mm 14.0 W/m2
06:50 65.1 °F /  18.4 °C 7.2 °F /  -13.8 °C 30.12in /  1019.9hPa South 2.0mph /  3.2km/h 5.0mph /  8km/h 10% 0.00in /  0mm 16.0 W/m2
06:55 65.3 °F /  18.5 °C 9.5 °F /  -12.5 °C 30.12in /  1019.9hPa SSW 6.9mph /  11.1km/h 11.0mph /  17.7km/h 11% 0.00in /  0mm 16.0 W/m2
07:00 65.7 °F /  18.7 °C 9.7 °F /  -12.4 °C 30.12in /  1019.9hPa SW 4.0mph /  6.4km/h 9.0mph /  14.5km/h 11% 0.00in /  0mm 18.0 W/m2
07:05 65.7 °F /  18.7 °C 7.5 °F /  -13.6 °C 30.13in /  1020.2hPa SSW 12.1mph /  19.5km/h 13.0mph /  20.9km/h 10% 0.00in /  0mm 18.0 W/m2
07:10 66.2 °F /  19 °C 5.7 °F /  -14.6 °C 30.13in /  1020.2hPa WSW 0.9mph /  1.4km/h 6.0mph /  9.7km/h 9% 0.00in /  0mm 19.0 W/m2
07:15 66.6 °F /  19.2 °C 10.4 °F /  -12 °C 30.13in /  1020.2hPa South 2.0mph /  3.2km/h 4.0mph /  6.4km/h 11% 0.00in /  0mm 21.0 W/m2
07:18 66.6 °F /  19.2 °C 10.4 °F /  -12 °C 30.13in /  1020.2hPa SSW 2.9mph /  4.7km/h 7.0mph /  11.3km/h 11% 0.00in /  0mm 21.0 W/m2
07:23 66.9 °F /  19.4 °C 10.8 °F /  -11.8 °C 30.13in /  1020.2hPa SW 0.9mph /  1.4km/h 10.0mph /  16.1km/h 11% 0.00in /  0mm 21.0 W/m2
07:28 67.1 °F /  19.5 °C 10.8 °F /  -11.8 °C 30.14in /  1020.5hPa SSE 4.0mph /  6.4km/h 12.0mph /  19.3km/h 11% 0.00in /  0mm 23.0 W/m2
07:31 67.3 °F /  19.6 °C 12.9 °F /  -10.6 °C 30.14in /  1020.5hPa SSE 6.0mph /  9.7km/h 6.0mph /  9.7km/h 12% 0.00in /  0mm 23.0 W/m2
07:36 67.5 °F /  19.7 °C 13.1 °F /  -10.5 °C 30.14in /  1020.5hPa SE 6.9mph /  11.1km/h 7.0mph /  11.3km/h 12% 0.00in /  0mm 23.0 W/m2
07:41 67.6 °F /  19.8 °C 15.1 °F /  -9.4 °C 30.14in /  1020.5hPa SSW 4.9mph /  7.9km/h 6.0mph /  9.7km/h 13% 0.00in /  0mm 25.0 W/m2
07:46 67.8 °F /  19.9 °C 15.1 °F /  -9.4 °C 30.14in /  1020.5hPa SSW 0.9mph /  1.4km/h 4.0mph /  6.4km/h 13% 0.00in /  0mm 125.0 W/m2
07:51 68.2 °F /  20.1 °C 15.4 °F /  -9.2 °C 30.14in /  1020.5hPa SSW 4.0mph /  6.4km/h 12.0mph /  19.3km/h 13% 0.00in /  0mm 355.0 W/m2
07:57 68.7 °F /  20.4 °C 15.8 °F /  -9 °C 30.15in /  1020.9hPa Calm   8.0mph /  12.9km/h 13% 0.00in /  0mm 401.0 W/m2
08:03 69.4 °F /  20.8 °C 16.5 °F /  -8.6 °C 30.14in /  1020.5hPa SSE 6.0mph /  9.7km/h 7.0mph /  11.3km/h 13% 0.00in /  0mm 424.0 W/m2
08:08 70.2 °F /  21.2 °C 17.1 °F /  -8.3 °C 30.14in /  1020.5hPa SW 2.9mph /  4.7km/h 11.0mph /  17.7km/h 13% 0.00in /  0mm 443.0 W/m2
08:13 70.5 °F /  21.4 °C 17.2 °F /  -8.2 °C 30.14in /  1020.5hPa SSE 0.9mph /  1.4km/h 7.0mph /  11.3km/h 13% 0.00in /  0mm 466.0 W/m2
08:19 71.1 °F /  21.7 °C 17.8 °F /  -7.9 °C 30.15in /  1020.9hPa SSW 2.9mph /  4.7km/h 6.0mph /  9.7km/h 13% 0.00in /  0mm 487.0 W/m2
08:24 71.4 °F /  21.9 °C 19.8 °F /  -6.8 °C 30.15in /  1020.9hPa ESE 2.0mph /  3.2km/h 2.0mph /  3.2km/h 14% 0.00in /  0mm 506.0 W/m2
08:29 72.0 °F /  22.2 °C 20.1 °F /  -6.6 °C 30.15in /  1020.9hPa South 4.0mph /  6.4km/h 7.0mph /  11.3km/h 14% 0.00in /  0mm 529.0 W/m2
08:34 72.3 °F /  22.4 °C 20.5 °F /  -6.4 °C 30.15in /  1020.9hPa South 2.0mph /  3.2km/h 7.0mph /  11.3km/h 14% 0.00in /  0mm 545.0 W/m2
08:39 72.9 °F /  22.7 °C 20.8 °F /  -6.2 °C 30.15in /  1020.9hPa West 2.0mph /  3.2km/h 5.0mph /  8km/h 14% 0.00in /  0mm 564.0 W/m2
08:44 73.0 °F /  22.8 °C 21.0 °F /  -6.1 °C 30.15in /  1020.9hPa SE 2.9mph /  4.7km/h 4.0mph /  6.4km/h 14% 0.00in /  0mm 584.0 W/m2
08:49 73.6 °F /  23.1 °C 19.8 °F /  -6.8 °C 30.15in /  1020.9hPa SSE 4.9mph /  7.9km/h 6.0mph /  9.7km/h 13% 0.00in /  0mm 605.0 W/m2
08:54 73.9 °F /  23.3 °C 18.1 °F /  -7.7 °C 30.15in /  1020.9hPa SSE 6.0mph /  9.7km/h 7.0mph /  11.3km/h 12% 0.00in /  0mm 624.0 W/m2
09:05 74.7 °F /  23.7 °C 20.5 °F /  -6.4 °C 30.15in /  1020.9hPa SW 2.9mph /  4.7km/h 4.0mph /  6.4km/h 13% 0.00in /  0mm 664.0 W/m2
09:09 74.7 °F /  23.7 °C 23.9 °F /  -4.5 °C 30.14in /  1020.5hPa South 8.1mph /  13km/h 8.1mph /  13km/h 15% 0.00in /  0mm 679.0 W/m2
09:14 75.0 °F /  23.9 °C 20.8 °F /  -6.2 °C 30.15in /  1020.9hPa SE 2.9mph /  4.7km/h 7.0mph /  11.3km/h 13% 0.00in /  0mm 696.0 W/m2
09:19 75.6 °F /  24.2 °C 21.2 °F /  -6 °C 30.15in /  1020.9hPa SSE 4.0mph /  6.4km/h 7.0mph /  11.3km/h 13% 0.00in /  0mm 712.0 W/m2
09:24 75.7 °F /  24.3 °C 21.4 °F /  -5.9 °C 30.15in /  1020.9hPa South 10.1mph /  16.3km/h 11.0mph /  17.7km/h 13% 0.00in /  0mm 729.0 W/m2
09:25 75.9 °F /  24.4 °C 19.6 °F /  -6.9 °C 30.15in /  1020.9hPa South 4.0mph /  6.4km/h 11.0mph /  17.7km/h 12% 0.00in /  0mm 733.0 W/m2
09:30 76.1 °F /  24.5 °C 21.7 °F /  -5.7 °C 30.15in /  1020.9hPa SSW 4.9mph /  7.9km/h 9.0mph /  14.5km/h 13% 0.00in /  0mm 749.0 W/m2
09:31 76.3 °F /  24.6 °C 21.7 °F /  -5.7 °C 30.15in /  1020.9hPa SE 4.0mph /  6.4km/h 9.0mph /  14.5km/h 13% 0.00in /  0mm 754.0 W/m2
09:33 76.3 °F /  24.6 °C 21.7 °F /  -5.7 °C 30.15in /  1020.9hPa SE 0.9mph /  1.4km/h 7.0mph /  11.3km/h 13% 0.00in /  0mm 759.0 W/m2
09:38 76.8 °F /  24.9 °C 20.3 °F /  -6.5 °C 30.15in /  1020.9hPa SSE 2.9mph /  4.7km/h 6.0mph /  9.7km/h 12% 0.00in /  0mm 775.0 W/m2
09:43 77.4 °F /  25.2 °C 18.7 °F /  -7.4 °C 30.15in /  1020.9hPa SSW 0.9mph /  1.4km/h 5.0mph /  8km/h 11% 0.00in /  0mm 793.0 W/m2
09:44 77.5 °F /  25.3 °C 18.9 °F /  -7.3 °C 30.15in /  1020.9hPa ESE 6.9mph /  11.1km/h 10.0mph /  16.1km/h 11% 0.00in /  0mm 793.0 W/m2
09:50 77.5 °F /  25.3 °C 18.9 °F /  -7.3 °C 30.15in /  1020.9hPa SE 2.9mph /  4.7km/h 9.0mph /  14.5km/h 11% 0.00in /  0mm 812.0 W/m2
09:51 77.5 °F /  25.3 °C 18.9 °F /  -7.3 °C 30.15in /  1020.9hPa SSE 8.9mph /  14.3km/h 11.0mph /  17.7km/h 11% 0.00in /  0mm 816.0 W/m2
09:56 77.7 °F /  25.4 °C 19.0 °F /  -7.2 °C 30.15in /  1020.9hPa SE 4.9mph /  7.9km/h 9.0mph /  14.5km/h 11% 0.00in /  0mm 831.0 W/m2
09:58 77.9 °F /  25.5 °C 19.2 °F /  -7.1 °C 30.15in /  1020.9hPa SE 4.9mph /  7.9km/h 8.0mph /  12.9km/h 11% 0.00in /  0mm 840.0 W/m2
10:04 78.1 °F /  25.6 °C 19.2 °F /  -7.1 °C 30.15in /  1020.9hPa South 6.9mph /  11.1km/h 10.0mph /  16.1km/h 11% 0.00in /  0mm 860.0 W/m2
10:09 78.3 °F /  25.7 °C 21.6 °F /  -5.8 °C 30.15in /  1020.9hPa SE 6.9mph /  11.1km/h 9.0mph /  14.5km/h 12% 0.00in /  0mm 870.0 W/m2
10:14 78.4 °F /  25.8 °C 19.6 °F /  -6.9 °C 30.15in /  1020.9hPa ESE 6.0mph /  9.7km/h 10.0mph /  16.1km/h 11% 0.00in /  0mm 884.0 W/m2
10:20 79.2 °F /  26.2 °C 20.1 °F /  -6.6 °C 30.15in /  1020.9hPa South 0.9mph /  1.4km/h 9.0mph /  14.5km/h 11% 0.00in /  0mm 896.0 W/m2
10:25 79.3 °F /  26.3 °C 20.3 °F /  -6.5 °C 30.15in /  1020.9hPa SE 6.0mph /  9.7km/h 9.0mph /  14.5km/h 11% 0.00in /  0mm 914.0 W/m2
10:30 79.9 °F /  26.6 °C 18.5 °F /  -7.5 °C 30.15in /  1020.9hPa SE 2.9mph /  4.7km/h 11.0mph /  17.7km/h 10% 0.00in /  0mm 925.0 W/m2
10:37 80.2 °F /  26.8 °C 18.7 °F /  -7.4 °C 30.15in /  1020.9hPa SSE 4.0mph /  6.4km/h 9.0mph /  14.5km/h 10% 0.00in /  0mm 942.0 W/m2
10:42 80.2 °F /  26.8 °C 16.3 °F /  -8.7 °C 30.15in /  1020.9hPa SE 6.0mph /  9.7km/h 9.0mph /  14.5km/h 9% 0.00in /  0mm 956.0 W/m2
10:47 80.6 °F /  27 °C 13.8 °F /  -10.1 °C 30.15in /  1020.9hPa WSW 0.9mph /  1.4km/h 3.0mph /  4.8km/h 8% 0.00in /  0mm 970.0 W/m2
10:52 81.0 °F /  27.2 °C 16.9 °F /  -8.4 °C 30.15in /  1020.9hPa SSW 2.9mph /  4.7km/h 4.0mph /  6.4km/h 9% 0.00in /  0mm 984.0 W/m2
10:57 81.1 °F /  27.3 °C 14.2 °F /  -9.9 °C 30.15in /  1020.9hPa Calm   3.0mph /  4.8km/h 8% 0.00in /  0mm 995.0 W/m2
11:02 81.7 °F /  27.6 °C 17.4 °F /  -8.1 °C 30.15in /  1020.9hPa SSE 2.9mph /  4.7km/h 6.0mph /  9.7km/h 9% 0.00in /  0mm 1002.0 W/m2
11:08 81.7 °F /  27.6 °C 17.4 °F /  -8.1 °C 30.15in /  1020.9hPa SE 0.9mph /  1.4km/h 7.0mph /  11.3km/h 9% 0.00in /  0mm 1009.0 W/m2
11:14 82.0 °F /  27.8 °C 17.6 °F /  -8 °C 30.14in /  1020.5hPa SE 4.0mph /  6.4km/h 9.0mph /  14.5km/h 9% 0.00in /  0mm 1021.0 W/m2
11:19 82.4 °F /  28 °C 20.3 °F /  -6.5 °C 30.14in /  1020.5hPa Calm   4.0mph /  6.4km/h 10% 0.00in /  0mm 1028.0 W/m2
11:24 82.6 °F /  28.1 °C 20.5 °F /  -6.4 °C 30.14in /  1020.5hPa Calm   3.0mph /  4.8km/h 10% 0.00in /  0mm 1035.0 W/m2
11:29 82.8 °F /  28.2 °C 20.7 °F /  -6.3 °C 30.14in /  1020.5hPa SSE 4.0mph /  6.4km/h 7.0mph /  11.3km/h 10% 0.00in /  0mm 1044.0 W/m2
11:34 82.8 °F /  28.2 °C 18.1 °F /  -7.7 °C 30.14in /  1020.5hPa ESE 0.9mph /  1.4km/h 8.0mph /  12.9km/h 9% 0.00in /  0mm 1053.0 W/m2
11:40 82.8 °F /  28.2 °C 18.1 °F /  -7.7 °C 30.14in /  1020.5hPa SSW 2.9mph /  4.7km/h 5.0mph /  8km/h 9% 0.00in /  0mm 1058.0 W/m2
11:45 82.6 °F /  28.1 °C 20.5 °F /  -6.4 °C 30.13in /  1020.2hPa SE 0.9mph /  1.4km/h 7.0mph /  11.3km/h 10% 0.00in /  0mm 1065.0 W/m2
11:50 82.9 °F /  28.3 °C 20.8 °F /  -6.2 °C 30.13in /  1020.2hPa SSE 8.1mph /  13km/h 12.0mph /  19.3km/h 10% 0.00in /  0mm 1071.0 W/m2
11:56 83.5 °F /  28.6 °C 18.7 °F /  -7.4 °C 30.13in /  1020.2hPa ENE 0.9mph /  1.4km/h 5.0mph /  8km/h 9% 0.00in /  0mm 1078.0 W/m2
12:01 84.2 °F /  29 °C 21.7 °F /  -5.7 °C 30.13in /  1020.2hPa ESE 2.9mph /  4.7km/h 4.0mph /  6.4km/h 10% 0.00in /  0mm 1081.0 W/m2
12:06 84.7 °F /  29.3 °C 19.6 °F /  -6.9 °C 30.13in /  1020.2hPa East 6.9mph /  11.1km/h 10.0mph /  16.1km/h 9% 0.00in /  0mm 1085.0 W/m2
12:11 85.1 °F /  29.5 °C 17.2 °F /  -8.2 °C 30.12in /  1019.9hPa NE 2.9mph /  4.7km/h 5.0mph /  8km/h 8% 0.00in /  0mm 1088.0 W/m2
12:16 85.5 °F /  29.7 °C 17.4 °F /  -8.1 °C 30.12in /  1019.9hPa West 4.9mph /  7.9km/h 6.0mph /  9.7km/h 8% 0.00in /  0mm 1090.0 W/m2
12:22 85.5 °F /  29.7 °C 17.4 °F /  -8.1 °C 30.12in /  1019.9hPa Calm   8.0mph /  12.9km/h 8% 0.00in /  0mm 1092.0 W/m2
12:27 85.6 °F /  29.8 °C 17.6 °F /  -8 °C 30.12in /  1019.9hPa ESE 4.9mph /  7.9km/h 10.0mph /  16.1km/h 8% 0.00in /  0mm 1093.0 W/m2
12:32 86.2 °F /  30.1 °C 14.9 °F /  -9.5 °C 30.12in /  1019.9hPa ENE 2.0mph /  3.2km/h 6.0mph /  9.7km/h 7% 0.00in /  0mm 1097.0 W/m2
12:38 86.2 °F /  30.1 °C 18.0 °F /  -7.8 °C 30.12in /  1019.9hPa North 2.0mph /  3.2km/h 7.0mph /  11.3km/h 8% 0.00in /  0mm 1097.0 W/m2
12:43 86.5 °F /  30.3 °C 21.0 °F /  -6.1 °C 30.11in /  1019.5hPa South 10.1mph /  16.3km/h 11.0mph /  17.7km/h 9% 0.00in /  0mm 1097.0 W/m2
12:48 86.9 °F /  30.5 °C 18.5 °F /  -7.5 °C 30.11in /  1019.5hPa ESE 6.0mph /  9.7km/h 8.0mph /  12.9km/h 8% 0.00in /  0mm 1092.0 W/m2
12:53 87.3 °F /  30.7 °C 21.6 °F /  -5.8 °C 30.11in /  1019.5hPa WSW 6.9mph /  11.1km/h 9.0mph /  14.5km/h 9% 0.00in /  0mm 1079.0 W/m2
12:58 86.7 °F /  30.4 °C 21.2 °F /  -6 °C 30.11in /  1019.5hPa West 2.9mph /  4.7km/h 9.0mph /  14.5km/h 9% 0.00in /  0mm 1081.0 W/m2
13:03 87.1 °F /  30.6 °C 21.4 °F /  -5.9 °C 30.11in /  1019.5hPa NE 0.9mph /  1.4km/h 10.0mph /  16.1km/h 9% 0.00in /  0mm 1092.0 W/m2
13:09 87.6 °F /  30.9 °C 19.0 °F /  -7.2 °C 30.10in /  1019.2hPa South 4.0mph /  6.4km/h 5.0mph /  8km/h 8% 0.00in /  0mm 1092.0 W/m2
13:14 88.2 °F /  31.2 °C 19.4 °F /  -7 °C 30.11in /  1019.5hPa South 4.0mph /  6.4km/h 7.0mph /  11.3km/h 8% 0.00in /  0mm 1083.0 W/m2
13:19 88.3 °F /  31.3 °C 19.6 °F /  -6.9 °C 30.10in /  1019.2hPa South 6.9mph /  11.1km/h 9.0mph /  14.5km/h 8% 0.00in /  0mm 1079.0 W/m2
13:24 88.5 °F /  31.4 °C 19.8 °F /  -6.8 °C 30.10in /  1019.2hPa SSW 2.9mph /  4.7km/h 7.0mph /  11.3km/h 8% 0.00in /  0mm 1085.0 W/m2
13:30 88.9 °F /  31.6 °C 16.9 °F /  -8.4 °C 30.10in /  1019.2hPa SSE 0.9mph /  1.4km/h 11.0mph /  17.7km/h 7% 0.00in /  0mm 1086.0 W/m2
13:35 89.1 °F /  31.7 °C 17.1 °F /  -8.3 °C 30.10in /  1019.2hPa SW 0.9mph /  1.4km/h 7.0mph /  11.3km/h 7% 0.00in /  0mm 1079.0 W/m2
13:40 89.1 °F /  31.7 °C 20.1 °F /  -6.6 °C 30.10in /  1019.2hPa SW 4.0mph /  6.4km/h 8.0mph /  12.9km/h 8% 0.00in /  0mm 1076.0 W/m2
13:45 88.7 °F /  31.5 °C 19.9 °F /  -6.7 °C 30.10in /  1019.2hPa SW 4.0mph /  6.4km/h 8.0mph /  12.9km/h 8% 0.00in /  0mm 1069.0 W/m2
13:49 88.3 °F /  31.3 °C 22.3 °F /  -5.4 °C 30.10in /  1019.2hPa SSE 8.1mph /  13km/h 9.0mph /  14.5km/h 9% 0.00in /  0mm 1062.0 W/m2
13:54 88.5 °F /  31.4 °C 19.8 °F /  -6.8 °C 30.09in /  1018.8hPa SE 4.0mph /  6.4km/h 5.0mph /  8km/h 8% 0.00in /  0mm 1058.0 W/m2
14:00 88.9 °F /  31.6 °C 19.9 °F /  -6.7 °C 30.09in /  1018.8hPa South 4.0mph /  6.4km/h 10.0mph /  16.1km/h 8% 0.00in /  0mm 1053.0 W/m2
14:05 89.1 °F /  31.7 °C 20.1 °F /  -6.6 °C 30.09in /  1018.8hPa SE 2.0mph /  3.2km/h 7.0mph /  11.3km/h 8% 0.00in /  0mm 1046.0 W/m2
14:08 89.4 °F /  31.9 °C 20.3 °F /  -6.5 °C 30.09in /  1018.8hPa South 4.0mph /  6.4km/h 7.0mph /  11.3km/h 8% 0.00in /  0mm 1041.0 W/m2
14:14 89.6 °F /  32 °C 20.5 °F /  -6.4 °C 30.09in /  1018.8hPa SE 2.9mph /  4.7km/h 6.0mph /  9.7km/h 8% 0.00in /  0mm 1030.0 W/m2
14:20 90.1 °F /  32.3 °C 23.7 °F /  -4.6 °C 30.09in /  1018.8hPa SSE 4.0mph /  6.4km/h 9.0mph /  14.5km/h 9% 0.00in /  0mm 1021.0 W/m2
14:25 90.3 °F /  32.4 °C 23.9 °F /  -4.5 °C 30.09in /  1018.8hPa South 4.0mph /  6.4km/h 5.0mph /  8km/h 9% 0.00in /  0mm 1007.0 W/m2
14:30 90.3 °F /  32.4 °C 23.9 °F /  -4.5 °C 30.08in /  1018.5hPa SSE 4.0mph /  6.4km/h 9.0mph /  14.5km/h 9% 0.00in /  0mm 1000.0 W/m2
14:36 90.3 °F /  32.4 °C 23.9 °F /  -4.5 °C 30.08in /  1018.5hPa NE 0.9mph /  1.4km/h 4.0mph /  6.4km/h 9% 0.00in /  0mm 990.0 W/m2
14:42 90.7 °F /  32.6 °C 28.9 °F /  -1.7 °C 30.08in /  1018.5hPa SSE 4.9mph /  7.9km/h 7.0mph /  11.3km/h 11% 0.00in /  0mm 977.0 W/m2
14:47 91.0 °F /  32.8 °C 27.0 °F /  -2.8 °C 30.08in /  1018.5hPa South 2.9mph /  4.7km/h 7.0mph /  11.3km/h 10% 0.00in /  0mm 969.0 W/m2
14:52 91.0 °F /  32.8 °C 27.0 °F /  -2.8 °C 30.08in /  1018.5hPa SSE 2.0mph /  3.2km/h 8.0mph /  12.9km/h 10% 0.00in /  0mm 960.0 W/m2
14:57 91.2 °F /  32.9 °C 27.1 °F /  -2.7 °C 30.08in /  1018.5hPa South 6.0mph /  9.7km/h 6.0mph /  9.7km/h 10% 0.00in /  0mm 947.0 W/m2
15:02 91.2 °F /  32.9 °C 27.1 °F /  -2.7 °C 30.07in /  1018.2hPa SE 6.0mph /  9.7km/h 9.0mph /  14.5km/h 10% 0.00in /  0mm 937.0 W/m2
15:07 91.4 °F /  33 °C 29.5 °F /  -1.4 °C 30.07in /  1018.2hPa SSW 4.0mph /  6.4km/h 9.0mph /  14.5km/h 11% 0.00in /  0mm 925.0 W/m2
15:12 91.2 °F /  32.9 °C 27.1 °F /  -2.7 °C 30.07in /  1018.2hPa SSW 6.0mph /  9.7km/h 15.0mph /  24.1km/h 10% 0.00in /  0mm 911.0 W/m2
15:17 91.0 °F /  32.8 °C 27.0 °F /  -2.8 °C 30.07in /  1018.2hPa SSW 0.9mph /  1.4km/h 8.0mph /  12.9km/h 10% 0.00in /  0mm 898.0 W/m2
15:18 90.9 °F /  32.7 °C 26.8 °F /  -2.9 °C 30.07in /  1018.2hPa SSW 0.9mph /  1.4km/h 7.0mph /  11.3km/h 10% 0.00in /  0mm 895.0 W/m2
15:23 90.7 °F /  32.6 °C 26.6 °F /  -3 °C 30.07in /  1018.2hPa West 2.0mph /  3.2km/h 6.0mph /  9.7km/h 10% 0.00in /  0mm 882.0 W/m2
15:29 90.7 °F /  32.6 °C 28.9 °F /  -1.7 °C 30.06in /  1017.8hPa SSW 4.9mph /  7.9km/h 9.0mph /  14.5km/h 11% 0.00in /  0mm 868.0 W/m2
15:34 90.9 °F /  32.7 °C 26.8 °F /  -2.9 °C 30.06in /  1017.8hPa SSW 2.0mph /  3.2km/h 6.0mph /  9.7km/h 10% 0.00in /  0mm 853.0 W/m2
15:40 90.3 °F /  32.4 °C 26.4 °F /  -3.1 °C 30.06in /  1017.8hPa SSW 2.9mph /  4.7km/h 9.0mph /  14.5km/h 10% 0.00in /  0mm 837.0 W/m2
15:45 90.3 °F /  32.4 °C 28.8 °F /  -1.8 °C 30.06in /  1017.8hPa South 4.9mph /  7.9km/h 10.0mph /  16.1km/h 11% 0.00in /  0mm 821.0 W/m2
15:50 90.9 °F /  32.7 °C 29.1 °F /  -1.6 °C 30.05in /  1017.5hPa South 2.9mph /  4.7km/h 7.0mph /  11.3km/h 11% 0.00in /  0mm 807.0 W/m2
15:55 91.4 °F /  33 °C 27.1 °F /  -2.7 °C 30.05in /  1017.5hPa SSE 6.9mph /  11.1km/h 10.0mph /  16.1km/h 10% 0.00in /  0mm 788.0 W/m2
16:00 91.4 °F /  33 °C 27.1 °F /  -2.7 °C 30.05in /  1017.5hPa South 4.9mph /  7.9km/h 5.0mph /  8km/h 10% 0.00in /  0mm 775.0 W/m2
16:05 91.6 °F /  33.1 °C 27.3 °F /  -2.6 °C 30.05in /  1017.5hPa SSE 4.0mph /  6.4km/h 7.0mph /  11.3km/h 10% 0.00in /  0mm 758.0 W/m2
16:10 91.8 °F /  33.2 °C 27.5 °F /  -2.5 °C 30.05in /  1017.5hPa SE 6.9mph /  11.1km/h 9.0mph /  14.5km/h 10% 0.00in /  0mm 740.0 W/m2
16:15 91.4 °F /  33 °C 27.1 °F /  -2.7 °C 30.04in /  1017.2hPa SSW 6.9mph /  11.1km/h 8.0mph /  12.9km/h 10% 0.00in /  0mm 722.0 W/m2
16:18 91.2 °F /  32.9 °C 27.1 °F /  -2.7 °C 30.04in /  1017.2hPa ESE 2.9mph /  4.7km/h 8.0mph /  12.9km/h 10% 0.00in /  0mm 712.0 W/m2
16:23 91.2 °F /  32.9 °C 27.1 °F /  -2.7 °C 30.05in /  1017.5hPa SE 4.9mph /  7.9km/h 8.0mph /  12.9km/h 10% 0.00in /  0mm 698.0 W/m2
16:26 91.2 °F /  32.9 °C 27.1 °F /  -2.7 °C 30.05in /  1017.5hPa SE 2.0mph /  3.2km/h 4.0mph /  6.4km/h 10% 0.00in /  0mm 689.0 W/m2
16:31 91.2 °F /  32.9 °C 24.4 °F /  -4.2 °C 30.04in /  1017.2hPa Calm   5.0mph /  8km/h 9% 0.00in /  0mm 671.0 W/m2
16:36 91.4 °F /  33 °C 27.1 °F /  -2.7 °C 30.04in /  1017.2hPa SW 0.9mph /  1.4km/h 7.0mph /  11.3km/h 10% 0.00in /  0mm 656.0 W/m2
16:42 91.2 °F /  32.9 °C 27.1 °F /  -2.7 °C 30.04in /  1017.2hPa South 6.0mph /  9.7km/h 7.0mph /  11.3km/h 10% 0.00in /  0mm 635.0 W/m2
16:47 91.6 °F /  33.1 °C 29.7 °F /  -1.3 °C 30.04in /  1017.2hPa SE 4.0mph /  6.4km/h 8.0mph /  12.9km/h 11% 0.00in /  0mm 617.0 W/m2
16:51 91.6 °F /  33.1 °C 27.3 °F /  -2.6 °C 30.04in /  1017.2hPa SSE 2.0mph /  3.2km/h 8.0mph /  12.9km/h 10% 0.00in /  0mm 598.0 W/m2
16:56 91.2 °F /  32.9 °C 29.3 °F /  -1.5 °C 30.04in /  1017.2hPa West 4.9mph /  7.9km/h 13.0mph /  20.9km/h 11% 0.00in /  0mm 580.0 W/m2
17:01 90.9 °F /  32.7 °C 29.1 °F /  -1.6 °C 30.04in /  1017.2hPa Calm   7.0mph /  11.3km/h 11% 0.00in /  0mm 563.0 W/m2
17:06 90.7 °F /  32.6 °C 28.9 °F /  -1.7 °C 30.04in /  1017.2hPa SSE 2.0mph /  3.2km/h 9.0mph /  14.5km/h 11% 0.00in /  0mm 545.0 W/m2
17:11 90.7 °F /  32.6 °C 26.6 °F /  -3 °C 30.04in /  1017.2hPa SSE 6.0mph /  9.7km/h 7.0mph /  11.3km/h 10% 0.00in /  0mm 524.0 W/m2
17:14 90.7 °F /  32.6 °C 26.6 °F /  -3 °C 30.04in /  1017.2hPa Calm   7.0mph /  11.3km/h 10% 0.00in /  0mm 517.0 W/m2
17:19 90.3 °F /  32.4 °C 28.8 °F /  -1.8 °C 30.04in /  1017.2hPa SSW 2.0mph /  3.2km/h 6.0mph /  9.7km/h 11% 0.00in /  0mm 497.0 W/m2
17:24 90.3 °F /  32.4 °C 28.8 °F /  -1.8 °C 30.03in /  1016.8hPa SE 6.0mph /  9.7km/h 9.0mph /  14.5km/h 11% 0.00in /  0mm 478.0 W/m2
17:29 90.3 °F /  32.4 °C 28.8 °F /  -1.8 °C 30.04in /  1017.2hPa SE 2.0mph /  3.2km/h 9.0mph /  14.5km/h 11% 0.00in /  0mm 459.0 W/m2
17:34 90.1 °F /  32.3 °C 28.6 °F /  -1.9 °C 30.04in /  1017.2hPa SE 11.0mph /  17.7km/h 11.0mph /  17.7km/h 11% 0.00in /  0mm 441.0 W/m2
17:39 89.8 °F /  32.1 °C 28.2 °F /  -2.1 °C 30.03in /  1016.8hPa SSE 0.9mph /  1.4km/h 8.0mph /  12.9km/h 11% 0.00in /  0mm 420.0 W/m2
17:44 89.6 °F /  32 °C 28.2 °F /  -2.1 °C 30.04in /  1017.2hPa SSE 4.0mph /  6.4km/h 11.0mph /  17.7km/h 11% 0.00in /  0mm 399.0 W/m2
17:49 89.1 °F /  31.7 °C 27.7 °F /  -2.4 °C 30.03in /  1016.8hPa SSW 4.0mph /  6.4km/h 7.0mph /  11.3km/h 11% 0.00in /  0mm 380.0 W/m2
17:54 89.1 °F /  31.7 °C 27.7 °F /  -2.4 °C 30.04in /  1017.2hPa SW 0.9mph /  1.4km/h 17.0mph /  27.4km/h 11% 0.00in /  0mm 359.0 W/m2
18:00 88.5 °F /  31.4 °C 27.3 °F /  -2.6 °C 30.04in /  1017.2hPa SSE 4.0mph /  6.4km/h 7.0mph /  11.3km/h 11% 0.00in /  0mm 338.0 W/m2
18:05 88.5 °F /  31.4 °C 27.3 °F /  -2.6 °C 30.04in /  1017.2hPa South 2.9mph /  4.7km/h 7.0mph /  11.3km/h 11% 0.00in /  0mm 316.0 W/m2
18:10 88.5 °F /  31.4 °C 27.3 °F /  -2.6 °C 30.04in /  1017.2hPa SSE 6.0mph /  9.7km/h 9.0mph /  14.5km/h 11% 0.00in /  0mm 297.0 W/m2
18:15 88.5 °F /  31.4 °C 27.3 °F /  -2.6 °C 30.04in /  1017.2hPa Calm   11.0mph /  17.7km/h 11% 0.00in /  0mm 276.0 W/m2
18:20 88.5 °F /  31.4 °C 27.3 °F /  -2.6 °C 30.04in /  1017.2hPa SE 6.9mph /  11.1km/h 9.0mph /  14.5km/h 11% 0.00in /  0mm 257.0 W/m2
18:21 88.5 °F /  31.4 °C 27.3 °F /  -2.6 °C 30.04in /  1017.2hPa SE 8.9mph /  14.3km/h 9.0mph /  14.5km/h 11% 0.00in /  0mm 253.0 W/m2
18:26 88.3 °F /  31.3 °C 27.1 °F /  -2.7 °C 30.04in /  1017.2hPa South 4.0mph /  6.4km/h 11.0mph /  17.7km/h 11% 0.00in /  0mm 232.0 W/m2
18:31 88.2 °F /  31.2 °C 27.0 °F /  -2.8 °C 30.04in /  1017.2hPa SE 4.9mph /  7.9km/h 11.0mph /  17.7km/h 11% 0.00in /  0mm 211.0 W/m2
18:36 88.0 °F /  31.1 °C 27.0 °F /  -2.8 °C 30.04in /  1017.2hPa SSE 4.0mph /  6.4km/h 8.0mph /  12.9km/h 11% 0.00in /  0mm 183.0 W/m2
18:40 87.3 °F /  30.7 °C 26.4 °F /  -3.1 °C 30.05in /  1017.5hPa SE 4.9mph /  7.9km/h 10.0mph /  16.1km/h 11% 0.00in /  0mm 65.0 W/m2
18:46 86.5 °F /  30.3 °C 25.9 °F /  -3.4 °C 30.05in /  1017.5hPa SE 4.0mph /  6.4km/h 9.0mph /  14.5km/h 11% 0.00in /  0mm 33.0 W/m2
18:51 86.0 °F /  30 °C 27.5 °F /  -2.5 °C 30.05in /  1017.5hPa SSE 4.0mph /  6.4km/h 8.0mph /  12.9km/h 12% 0.00in /  0mm 26.0 W/m2
18:56 85.6 °F /  29.8 °C 27.1 °F /  -2.7 °C 30.05in /  1017.5hPa ESE 2.9mph /  4.7km/h 8.0mph /  12.9km/h 12% 0.00in /  0mm 25.0 W/m2
19:01 85.3 °F /  29.6 °C 27.0 °F /  -2.8 °C 30.05in /  1017.5hPa SE 4.9mph /  7.9km/h 9.0mph /  14.5km/h 12% 0.00in /  0mm 23.0 W/m2
19:04 84.9 °F /  29.4 °C 26.6 °F /  -3 °C 30.05in /  1017.5hPa SE 2.9mph /  4.7km/h 11.0mph /  17.7km/h 12% 0.00in /  0mm 23.0 W/m2
19:09 84.6 °F /  29.2 °C 26.4 °F /  -3.1 °C 30.06in /  1017.8hPa SE 4.0mph /  6.4km/h 6.0mph /  9.7km/h 12% 0.00in /  0mm 19.0 W/m2
19:14 84.0 °F /  28.9 °C 25.9 °F /  -3.4 °C 30.06in /  1017.8hPa ESE 4.9mph /  7.9km/h 6.0mph /  9.7km/h 12% 0.00in /  0mm 16.0 W/m2
19:19 83.7 °F /  28.7 °C 25.7 °F /  -3.5 °C 30.06in /  1017.8hPa South 6.9mph /  11.1km/h 9.0mph /  14.5km/h 12% 0.00in /  0mm 14.0 W/m2
19:24 83.1 °F /  28.4 °C 25.3 °F /  -3.7 °C 30.06in /  1017.8hPa SSE 0.9mph /  1.4km/h 8.0mph /  12.9km/h 12% 0.00in /  0mm 11.0 W/m2
19:29 82.8 °F /  28.2 °C 25.0 °F /  -3.9 °C 30.06in /  1017.8hPa SSE 2.9mph /  4.7km/h 8.0mph /  12.9km/h 12% 0.00in /  0mm 9.0 W/m2
19:35 82.6 °F /  28.1 °C 24.8 °F /  -4 °C 30.07in /  1018.2hPa SSW 4.0mph /  6.4km/h 6.0mph /  9.7km/h 12% 0.00in /  0mm 5.0 W/m2
19:37 82.4 °F /  28 °C 26.6 °F /  -3 °C 30.07in /  1018.2hPa South 2.0mph /  3.2km/h 6.0mph /  9.7km/h 13% 0.00in /  0mm 5.0 W/m2
19:42 82.0 °F /  27.8 °C 26.4 °F /  -3.1 °C 30.07in /  1018.2hPa SE 2.9mph /  4.7km/h 7.0mph /  11.3km/h 13% 0.00in /  0mm 0.0 W/m2
19:47 81.7 °F /  27.6 °C 26.1 °F /  -3.3 °C 30.07in /  1018.2hPa SE 4.9mph /  7.9km/h 8.0mph /  12.9km/h 13% 0.00in /  0mm 0.0 W/m2
19:52 81.3 °F /  27.4 °C 25.7 °F /  -3.5 °C 30.07in /  1018.2hPa South 2.9mph /  4.7km/h 7.0mph /  11.3km/h 13% 0.00in /  0mm 0.0 W/m2
19:57 81.0 °F /  27.2 °C 27.3 °F /  -2.6 °C 30.08in /  1018.5hPa ESE 4.9mph /  7.9km/h 6.0mph /  9.7km/h 14% 0.00in /  0mm 0.0 W/m2
20:02 80.8 °F /  27.1 °C 27.1 °F /  -2.7 °C 30.08in /  1018.5hPa SSE 2.0mph /  3.2km/h 8.0mph /  12.9km/h 14% 0.00in /  0mm 0.0 W/m2
20:07 80.4 °F /  26.9 °C 26.8 °F /  -2.9 °C 30.08in /  1018.5hPa SE 0.9mph /  1.4km/h 8.0mph /  12.9km/h 14% 0.00in /  0mm 0.0 W/m2
20:12 80.4 °F /  26.9 °C 26.8 °F /  -2.9 °C 30.08in /  1018.5hPa South 6.9mph /  11.1km/h 8.0mph /  12.9km/h 14% 0.00in /  0mm 0.0 W/m2
20:18 80.2 °F /  26.8 °C 26.8 °F /  -2.9 °C 30.08in /  1018.5hPa SSE 6.9mph /  11.1km/h 7.0mph /  11.3km/h 14% 0.00in /  0mm 0.0 W/m2
20:23 80.1 °F /  26.7 °C 28.2 °F /  -2.1 °C 30.08in /  1018.5hPa South 8.1mph /  13km/h 8.1mph /  13km/h 15% 0.00in /  0mm 0.0 W/m2
20:28 79.9 °F /  26.6 °C 28.0 °F /  -2.2 °C 30.09in /  1018.8hPa SE 2.9mph /  4.7km/h 6.0mph /  9.7km/h 15% 0.00in /  0mm 0.0 W/m2
20:33 79.7 °F /  26.5 °C 28.0 °F /  -2.2 °C 30.09in /  1018.8hPa ESE 2.9mph /  4.7km/h 4.0mph /  6.4km/h 15% 0.00in /  0mm 0.0 W/m2
20:38 79.3 °F /  26.3 °C 27.7 °F /  -2.4 °C 30.09in /  1018.8hPa SE 2.0mph /  3.2km/h 5.0mph /  8km/h 15% 0.00in /  0mm 0.0 W/m2
20:43 79.2 °F /  26.2 °C 29.1 °F /  -1.6 °C 30.09in /  1018.8hPa East 0.9mph /  1.4km/h 6.0mph /  9.7km/h 16% 0.00in /  0mm 0.0 W/m2
20:48 78.8 °F /  26 °C 28.8 °F /  -1.8 °C 30.09in /  1018.8hPa Calm   1.0mph /  1.6km/h 16% 0.00in /  0mm 0.0 W/m2
20:54 78.4 °F /  25.8 °C 28.6 °F /  -1.9 °C 30.10in /  1019.2hPa Calm   5.0mph /  8km/h 16% 0.00in /  0mm 0.0 W/m2
20:59 78.3 °F /  25.7 °C 28.4 °F /  -2 °C 30.10in /  1019.2hPa ESE 2.9mph /  4.7km/h 5.0mph /  8km/h 16% 0.00in /  0mm 0.0 W/m2
21:05 78.1 °F /  25.6 °C 29.7 °F /  -1.3 °C 30.10in /  1019.2hPa SSE 2.9mph /  4.7km/h 5.0mph /  8km/h 17% 0.00in /  0mm 0.0 W/m2
21:08 77.9 °F /  25.5 °C 29.7 °F /  -1.3 °C 30.10in /  1019.2hPa SE 0.9mph /  1.4km/h 6.0mph /  9.7km/h 17% 0.00in /  0mm 0.0 W/m2
21:09 77.9 °F /  25.5 °C 29.7 °F /  -1.3 °C 30.10in /  1019.2hPa SE 0.9mph /  1.4km/h 4.0mph /  6.4km/h 17% 0.00in /  0mm 0.0 W/m2
21:15 77.7 °F /  25.4 °C 29.5 °F /  -1.4 °C 30.10in /  1019.2hPa SSE 2.9mph /  4.7km/h 5.0mph /  8km/h 17% 0.00in /  0mm 0.0 W/m2
21:21 77.4 °F /  25.2 °C 29.1 °F /  -1.6 °C 30.10in /  1019.2hPa Calm   5.0mph /  8km/h 17% 0.00in /  0mm 0.0 W/m2
21:26 77.4 °F /  25.2 °C 29.1 °F /  -1.6 °C 30.10in /  1019.2hPa Calm   3.0mph /  4.8km/h 17% 0.00in /  0mm 0.0 W/m2
21:31 77.2 °F /  25.1 °C 30.4 °F /  -0.9 °C 30.11in /  1019.5hPa Calm     18% 0.00in /  0mm 0.0 W/m2
21:36 76.8 °F /  24.9 °C 30.0 °F /  -1.1 °C 30.11in /  1019.5hPa SE 0.9mph /  1.4km/h 3.0mph /  4.8km/h 18% 0.00in /  0mm 0.0 W/m2
21:38 76.6 °F /  24.8 °C 28.6 °F /  -1.9 °C 30.11in /  1019.5hPa Calm   4.0mph /  6.4km/h 17% 0.00in /  0mm 0.0 W/m2
21:43 76.5 °F /  24.7 °C 28.4 °F /  -2 °C 30.11in /  1019.5hPa Calm   2.0mph /  3.2km/h 17% 0.00in /  0mm 0.0 W/m2
21:48 76.3 °F /  24.6 °C 29.7 °F /  -1.3 °C 30.11in /  1019.5hPa SE 2.0mph /  3.2km/h 2.0mph /  3.2km/h 18% 0.00in /  0mm 0.0 W/m2
21:53 75.9 °F /  24.4 °C 28.0 °F /  -2.2 °C 30.11in /  1019.5hPa Calm   4.0mph /  6.4km/h 17% 0.00in /  0mm 0.0 W/m2
21:56 75.9 °F /  24.4 °C 29.3 °F /  -1.5 °C 30.11in /  1019.5hPa Calm     18% 0.00in /  0mm 0.0 W/m2
22:02 75.7 °F /  24.3 °C 29.3 °F /  -1.5 °C 30.11in /  1019.5hPa Calm   1.0mph /  1.6km/h 18% 0.00in /  0mm 0.0 W/m2
22:06 75.6 °F /  24.2 °C 30.4 °F /  -0.9 °C 30.11in /  1019.5hPa Calm     19% 0.00in /  0mm 0.0 W/m2
22:11 75.0 °F /  23.9 °C 30.0 °F /  -1.1 °C 30.12in /  1019.9hPa Calm     19% 0.00in /  0mm 0.0 W/m2
22:16 74.8 °F /  23.8 °C 29.8 °F /  -1.2 °C 30.12in /  1019.9hPa Calm   1.0mph /  1.6km/h 19% 0.00in /  0mm 0.0 W/m2
22:21 74.5 °F /  23.6 °C 30.7 °F /  -0.7 °C 30.12in /  1019.9hPa Calm     20% 0.00in /  0mm 0.0 W/m2
22:26 74.3 °F /  23.5 °C 30.6 °F /  -0.8 °C 30.12in /  1019.9hPa Calm     20% 0.00in /  0mm 0.0 W/m2
22:31 73.9 °F /  23.3 °C 31.5 °F /  -0.3 °C 30.12in /  1019.9hPa Calm     21% 0.00in /  0mm 0.0 W/m2
22:36 73.6 °F /  23.1 °C 30.0 °F /  -1.1 °C 30.12in /  1019.9hPa Calm     20% 0.00in /  0mm 0.0 W/m2
22:43 73.2 °F /  22.9 °C 29.7 °F /  -1.3 °C 30.12in /  1019.9hPa Calm   4.0mph /  6.4km/h 20% 0.00in /  0mm 0.0 W/m2
22:48 73.0 °F /  22.8 °C 32.0 °F /  0 °C 30.12in /  1019.9hPa Calm   2.0mph /  3.2km/h 22% 0.00in /  0mm 0.0 W/m2
22:53 73.0 °F /  22.8 °C 29.7 °F /  -1.3 °C 30.12in /  1019.9hPa ESE 0.9mph /  1.4km/h 5.0mph /  8km/h 20% 0.00in /  0mm 0.0 W/m2
22:58 73.0 °F /  22.8 °C 30.7 °F /  -0.7 °C 30.12in /  1019.9hPa Calm   2.0mph /  3.2km/h 21% 0.00in /  0mm 0.0 W/m2
23:01 73.0 °F /  22.8 °C 30.7 °F /  -0.7 °C 30.12in /  1019.9hPa Calm     21% 0.00in /  0mm 0.0 W/m2
23:06 72.9 °F /  22.7 °C 30.6 °F /  -0.8 °C 30.13in /  1020.2hPa Calm     21% 0.00in /  0mm 0.0 W/m2
23:11 72.7 °F /  22.6 °C 30.6 °F /  -0.8 °C 30.13in /  1020.2hPa Calm     21% 0.00in /  0mm 0.0 W/m2
23:14 72.7 °F /  22.6 °C 30.6 °F /  -0.8 °C 30.13in /  1020.2hPa Calm   1.0mph /  1.6km/h 21% 0.00in /  0mm 0.0 W/m2
23:19 72.7 °F /  22.6 °C 30.6 °F /  -0.8 °C 30.13in /  1020.2hPa Calm   1.0mph /  1.6km/h 21% 0.00in /  0mm 0.0 W/m2
23:24 72.3 °F /  22.4 °C 31.3 °F /  -0.4 °C 30.14in /  1020.5hPa Calm     22% 0.00in /  0mm 0.0 W/m2
23:29 72.1 °F /  22.3 °C 31.1 °F /  -0.5 °C 30.14in /  1020.5hPa Calm     22% 0.00in /  0mm 0.0 W/m2
23:35 72.0 °F /  22.2 °C 32.2 °F /  0.1 °C 30.14in /  1020.5hPa Calm   1.0mph /  1.6km/h 23% 0.00in /  0mm 0.0 W/m2
23:40 71.8 °F /  22.1 °C 32.0 °F /  0 °C 30.14in /  1020.5hPa Calm   2.0mph /  3.2km/h 23% 0.00in /  0mm 0.0 W/m2
23:45 71.6 °F /  22 °C 30.7 °F /  -0.7 °C 30.14in /  1020.5hPa Calm   4.0mph /  6.4km/h 22% 0.00in /  0mm 0.0 W/m2
23:50 71.6 °F /  22 °C 30.7 °F /  -0.7 °C 30.15in /  1020.9hPa WSW 2.0mph /  3.2km/h 2.0mph /  3.2km/h 22% 0.00in /  0mm 0.0 W/m2
23:55 71.6 °F /  22 °C 30.7 °F /  -0.7 °C 30.14in /  1020.5hPa Calm   3.0mph /  4.8km/h 22% 0.00in /  0mm 0.0 W/m2
Olympia, Windhoek, Namibia
Compliments of Weather Underground - 3.5 mb